• Join FlightAware (Why Join?)
  • Login
  • US Flag 
08:42AM EDT


 

Airport Tracker/Info


-or-


 

Live Flight TrackerFlight Track Log ✈ N213KP ✈ 30-Sep-2013 ✈ KTRK - KBOI

Flight Track Log - Related Links

Times and Time Zones

All times are in EDT time to prevent confusion due to time zone crossing. See the N213KP flight status page for this flight to view local times or setup timezone preferences in your user account.

Time Position Orientation Groundspeed Altitude Reporting Facility
EDT Latitude Longitude Course Direction KTS MPH feet Rate Location/Type
09:08AM 39.4897 -120.0278 27° Northeast 235 270 11,700  Level Salt Lake Center
09:09AM 39.5453 -119.9911 27° Northeast 229 264 13,000 1,440 Climbing Salt Lake Center
09:10AM 39.5997 -119.9425 35° Northeast 234 269 14,700 1,320 Climbing Salt Lake Center
09:11AM 39.6572 -119.8936 33° Northeast 244 281 15,700 1,260 Climbing Oakland Center
09:12AM 39.7156 -119.8419 34° Northeast 252 290 17,300 1,380 Climbing Oakland Center
09:13AM 39.7769 -119.7900 33° Northeast 260 299 18,500 1,140 Climbing Oakland Center
09:14AM 39.8378 -119.7364 34° Northeast 263 303 19,600 900 Climbing Oakland Center
09:15AM 39.8969 -119.6836 34° Northeast 258 297 20,400 1,020 Climbing Oakland Center
09:16AM 39.9603 -119.6278 34° Northeast 269 310 21,700 1,260 Climbing Oakland Center
09:17AM 40.0222 -119.5725 34° Northeast 270 311 23,000 840 Climbing Oakland Center
09:18AM 40.0878 -119.5164 33° Northeast 276 318 23,400 660 Climbing Oakland Center
09:19AM 40.1472 -119.4633 34° Northeast 263 303 24,400 960 Climbing Oakland Center
09:20AM 40.2092 -119.4075 35° Northeast 268 308 25,400 960 Climbing Oakland Center
09:21AM 40.2661 -119.3572 34° Northeast 251 289 26,400 960 Climbing Oakland Center
09:22AM 40.3239 -119.3061 34° Northeast 248 285 27,400 780 Climbing Oakland Center
09:23AM 40.3825 -119.2528 35° Northeast 254 292 28,000 240 Climbing Oakland Center
09:24AM 40.4472 -119.1956 34° Northeast 269 310 28,000  Level Oakland Center
09:25AM 40.5161 -119.1328 35° Northeast 294 338 28,000  Level Oakland Center
09:26AM 40.5872 -119.0694 34° Northeast 306 352 28,000  Level Oakland Center
09:27AM 40.6542 -119.0094 34° Northeast 295 339 28,000  Level Oakland Center
09:28AM 40.7189 -118.9500 35° Northeast 286 329 28,000  Level Oakland Center
09:29AM 40.7878 -118.8864 35° Northeast 298 343 28,000  Level Oakland Center
09:30AM 40.8633 -118.8206 33° Northeast 289 333 28,000  Level Oakland Center
09:31AM 40.9308 -118.7575 35° Northeast 304 350 28,000  Level Oakland Center
09:32AM 41.0019 -118.6917 35° Northeast 323 372 28,000  Level Oakland Center
09:33AM 41.0772 -118.6250 34° Northeast 300 345 28,000  Level Salt Lake Center
09:34AM 41.1497 -118.5567 35° Northeast 287 330 28,000  Level Salt Lake Center
09:35AM 41.2169 -118.4950 35° Northeast 299 344 28,000  Level Salt Lake Center
09:36AM 41.2831 -118.4353 34° Northeast 300 345 28,000  Level Salt Lake Center
09:37AM 41.3550 -118.3675 35° Northeast 289 333 28,000  Level Salt Lake Center
09:38AM 41.4192 -118.3086 35° Northeast 289 333 28,000  Level Salt Lake Center
09:39AM 41.4889 -118.2433 35° Northeast 309 356 28,000  Level Salt Lake Center
09:40AM 41.5672 -118.1692 35° Northeast 308 354 28,000  Level Salt Lake Center
09:42AM 41.6319 -118.1081 35° Northeast 299 344 28,000  Level Salt Lake Center
09:43AM 41.7069 -118.0375 35° Northeast 294 338 28,000  Level Salt Lake Center
09:44AM 41.7686 -117.9811 34° Northeast 284 327 28,000  Level Salt Lake Center
09:45AM 41.8350 -117.9194 35° Northeast 294 338 28,000  Level Salt Lake Center
09:46AM 41.9211 -117.8372 35° Northeast 328 377 28,000  Level Salt Lake Center
09:47AM 41.9925 -117.7675 36° Northeast 330 380 28,000  Level Salt Lake Center
09:48AM 42.0550 -117.7075 35° Northeast 301 346 28,000  Level Salt Lake Center
09:49AM 42.1358 -117.6314 35° Northeast 308 354 28,000  Level Salt Lake Center
09:50AM 42.2069 -117.5606 36° Northeast 325 374 28,000  Level Salt Lake Center
09:51AM 42.2861 -117.4850 35° Northeast 317 365 28,000  Level Salt Lake Center
09:52AM 42.3606 -117.4125 36° Northeast 330 380 28,000  Level Salt Lake Center
09:53AM 42.4350 -117.3403 36° Northeast 329 379 28,000 -420 Level Salt Lake Center
09:54AM 42.5094 -117.2683 35° Northeast 329 379 27,200 -1,140 Descending Salt Lake Center
09:55AM 42.5833 -117.1964 36° Northeast 328 377 25,700 -1,500 Descending Salt Lake Center
09:56AM 42.6586 -117.1233 36° Northeast 333 383 24,200 -1,560 Descending Salt Lake Center
09:57AM 42.7358 -117.0472 36° Northeast 342 394 22,600 -1,620 Descending Salt Lake Center
09:58AM 42.8158 -116.9694 35° Northeast 352 405 20,900 -1,740 Descending Salt Lake Center
09:59AM 42.8947 -116.9350 18° North 302 348 19,600 -1,380 Descending Salt Lake Center
09:59AM 42.8883 -116.8981 103° East 323 372 19,500 -1,380 Descending Salt Lake Center
10:00AM 42.9550 -116.8722 16° North 283 326 18,200 -2,040 Descending Salt Lake Center
10:00AM 42.9644 -116.8236 75° East 282 325 17,400 -1,800 Descending Salt Lake Center
10:01AM 43.0186 -116.8050 14° North 272 313 16,400 -1,500 Descending Salt Lake Center
10:01AM 43.0253 -116.7633 78° East 271 312 15,900 -1,560 Descending Salt Lake Center
10:02AM 43.0842 -116.7367 18° North 257 296 14,700 -1,500 Descending Salt Lake Center
10:02AM 43.0808 -116.7081 99° East 258 297 14,400 -1,500 Descending Salt Lake Center
10:03AM 43.1356 -116.6831 18° North 245 282 13,200 -1,500 Descending Salt Lake Center
10:03AM 43.1394 -116.6500 81° East 249 287 12,900 -1,560 Descending Salt Lake Center
10:04AM 43.2000 -116.5875 37° Northeast 260 299 11,300 -1,620 Descending Salt Lake Center
10:05AM 43.2594 -116.5550 22° Northeast 249 287 9,900 -1,500 Descending Salt Lake Center
10:05AM 43.2561 -116.5358 103° East 253 291 9,800 -1,500 Descending Salt Lake Center
10:06AM 43.3050 -116.4944 32° Northeast 262 302 8,600 -1,620 Descending Salt Lake Center
10:06AM 43.3128 -116.4664 69° East 261 300 8,200 -1,380 Descending Salt Lake Center
10:07AM 43.3567 -116.4222 36° Northeast 272 313 7,200 -1,200 Descending Salt Lake Center
10:07AM 43.3661 -116.3858 70° East 272 313 7,000 -240 Descending Salt Lake Center
10:08AM 43.4011 -116.3381 45° Northeast 236 272 7,000  Level Salt Lake Center
10:08AM 43.4100 -116.3092 67° East 246 283 7,000 -840 Level Salt Lake Center
10:09AM 43.4244 -116.2567 69° East 253 291 6,200 -1,140 Descending Salt Lake Center
10:09AM 43.4250 -116.2233 89° East 253 291 5,900 -600 Descending Salt Lake Center
10:10AM 43.4281 -116.1656 86° East 225 259 5,600 -300 Descending Salt Lake Center
10:10AM 43.4319 -116.1339 80° East 227 261 5,600  Level Salt Lake Center
10:11AM 43.4475 -116.0975 60° Northeast 175 201 5,600 -240 Level Salt Lake Center
10:11AM 43.4653 -116.0844 28° Northeast 183 211 5,400 -720 Descending Salt Lake Center
10:12AM 43.4961 -116.0800 North 169 194 4,800 -780 Descending Salt Lake Center
10:12AM 43.5086 -116.0814 355° North 171 197 4,600 -720 Descending Salt Lake Center
10:13AM 43.5250 -116.1217 299° West 143 165 4,100 -600 Descending Salt Lake Center
10:13AM 43.5311 -116.1328 307° West 152 175 4,000 -660 Descending Salt Lake Center
10:14AM 43.5414 -116.1656 293° West 164 189 3,600 -540 Descending Salt Lake Center
10:14AM 43.5508 -116.1886 299° West 158 182 3,500 -240 Descending Salt Lake Center